createdAt,value
2017-04-25T00:00:57.964Z,0
2017-04-25T00:02:10.188Z,0
2017-04-25T00:03:22.431Z,0
2017-04-25T00:04:34.976Z,0
2017-04-25T00:05:47.219Z,0
2017-04-25T00:06:59.761Z,0
2017-04-25T00:08:11.990Z,0
2017-04-25T00:09:24.236Z,0
2017-04-25T00:10:36.755Z,0
2017-04-25T00:11:49.301Z,0
2017-04-25T00:13:01.547Z,0
2017-04-25T00:14:13.794Z,0
2017-04-25T00:15:26.309Z,0
2017-04-25T00:16:38.850Z,0
2017-04-25T00:17:51.081Z,0
2017-04-25T00:19:03.622Z,0
2017-04-25T00:20:16.145Z,0
2017-04-25T00:21:28.642Z,0
2017-04-25T00:22:41.161Z,0
2017-04-25T00:23:53.704Z,0
2017-04-25T00:25:06.258Z,0
2017-04-25T00:26:18.795Z,0
2017-04-25T00:27:31.325Z,0
2017-04-25T00:28:43.870Z,0
2017-04-25T00:29:56.420Z,0
2017-04-25T00:31:08.662Z,0
2017-04-25T00:32:20.611Z,0
2017-04-25T00:33:32.853Z,0
2017-04-25T00:34:45.396Z,0
2017-04-25T00:35:57.938Z,0
2017-04-25T00:37:10.185Z,0
2017-04-25T00:38:22.408Z,0
2017-04-25T00:39:34.976Z,0
2017-04-25T00:40:47.201Z,0
2017-04-25T00:41:59.725Z,0
2017-04-25T00:43:12.262Z,0
2017-04-25T00:44:24.492Z,0
2017-04-25T00:45:37.035Z,0
2017-04-25T00:46:49.558Z,0
2017-04-25T00:48:02.129Z,0
2017-04-25T00:49:14.382Z,0
2017-04-25T00:50:26.922Z,0
2017-04-25T00:51:39.443Z,0
2017-04-25T00:52:51.690Z,0
2017-04-25T00:54:04.251Z,0
2017-04-25T00:55:16.777Z,0
2017-04-25T00:56:29.301Z,0
2017-04-25T00:57:41.872Z,0
2017-04-25T00:58:53.791Z,0
2017-04-25T01:00:06.328Z,0
2017-04-25T01:01:18.888Z,0
2017-04-25T01:02:31.427Z,0
2017-04-25T01:03:43.923Z,0
2017-04-25T01:04:56.472Z,0
2017-04-25T01:06:09.014Z,0
2017-04-25T01:07:21.510Z,0
2017-04-25T01:08:33.729Z,0
2017-04-25T01:09:45.952Z,0
2017-04-25T01:10:58.148Z,0
2017-04-25T01:12:10.370Z,0
2017-04-25T01:13:22.917Z,0
2017-04-25T01:14:35.440Z,0
2017-04-25T01:15:47.974Z,0
2017-04-25T01:17:00.506Z,0
2017-04-25T01:18:12.748Z,0
2017-04-25T01:19:24.995Z,0
2017-04-25T01:20:37.537Z,0
2017-04-25T01:21:50.045Z,0
2017-04-25T01:23:02.558Z,0
2017-04-25T01:24:14.760Z,0
2017-04-25T01:25:27.291Z,0
2017-04-25T01:26:39.824Z,0
2017-04-25T01:27:52.341Z,0
2017-04-25T01:29:04.863Z,0
2017-04-25T01:30:17.405Z,0
2017-04-25T01:31:29.958Z,0
2017-04-25T01:32:42.499Z,0
2017-04-25T01:33:55.050Z,0
2017-04-25T01:35:07.593Z,0
2017-04-25T01:36:20.093Z,0
2017-04-25T01:37:32.614Z,0
2017-04-25T01:38:45.162Z,0
2017-04-25T01:39:57.676Z,0
2017-04-25T01:41:09.896Z,0
2017-04-25T01:42:21.820Z,0
2017-04-25T01:43:34.373Z,0
2017-04-25T01:44:46.330Z,0
2017-04-25T01:45:58.860Z,0
2017-04-25T01:47:11.402Z,0
2017-04-25T01:48:23.925Z,0
2017-04-25T01:49:36.163Z,0
2017-04-25T01:50:48.708Z,0
2017-04-25T01:52:01.509Z,0
2017-04-25T01:53:14.005Z,0
2017-04-25T01:54:26.544Z,0
2017-04-25T01:55:39.064Z,0
2017-04-25T01:56:51.592Z,0
2017-04-25T01:58:04.131Z,0
2017-04-25T01:59:16.663Z,0
2017-04-25T02:00:29.206Z,0
2017-04-25T02:01:41.751Z,0
2017-04-25T02:02:54.284Z,0
2017-04-25T02:04:06.811Z,0
2017-04-25T02:05:19.336Z,0
2017-04-25T02:06:31.863Z,0
2017-04-25T02:07:44.099Z,0
2017-04-25T02:08:56.631Z,0
2017-04-25T02:10:09.173Z,0
2017-04-25T02:11:21.696Z,0
2017-04-25T02:12:34.218Z,0
2017-04-25T02:13:46.764Z,0
2017-04-25T02:14:59.311Z,0
2017-04-25T02:16:11.832Z,0
2017-04-25T02:17:24.398Z,0
2017-04-25T02:18:36.938Z,0
2017-04-25T02:19:49.465Z,0
2017-04-25T02:21:01.989Z,0
2017-04-25T02:22:14.510Z,0
2017-04-25T02:23:27.045Z,0
2017-04-25T02:24:39.580Z,0
2017-04-25T02:25:52.098Z,0
2017-04-25T02:27:04.637Z,0
2017-04-25T02:28:16.541Z,0
2017-04-25T02:29:29.099Z,0
2017-04-25T02:30:41.349Z,0
2017-04-25T02:31:53.599Z,0
2017-04-25T02:33:06.126Z,0
2017-04-25T02:34:18.644Z,0
2017-04-25T02:35:31.158Z,0
2017-04-25T02:36:43.687Z,0
2017-04-25T02:37:56.221Z,0
2017-04-25T02:39:08.753Z,0
2017-04-25T02:40:20.971Z,0
2017-04-25T02:41:33.508Z,0
2017-04-25T02:42:45.740Z,0
2017-04-25T02:43:58.260Z,0
2017-04-25T02:45:10.485Z,0
2017-04-25T02:46:22.721Z,0
2017-04-25T02:47:34.939Z,0
2017-04-25T02:48:47.476Z,0
2017-04-25T02:50:00.013Z,0
2017-04-25T02:51:12.841Z,0
2017-04-25T02:52:25.331Z,0
2017-04-25T02:53:37.879Z,0
2017-04-25T02:54:50.397Z,0
2017-04-25T02:56:02.922Z,0
2017-04-25T02:57:15.156Z,0
2017-04-25T02:58:27.686Z,0
2017-04-25T02:59:40.209Z,0
2017-04-25T03:00:52.454Z,0
2017-04-25T03:02:05.247Z,0
2017-04-25T03:03:17.472Z,0
2017-04-25T03:04:29.993Z,0
2017-04-25T03:05:42.535Z,0
2017-04-25T03:06:55.038Z,0
2017-04-25T03:08:07.285Z,0
2017-04-25T03:09:19.844Z,0
2017-04-25T03:10:32.368Z,0
2017-04-25T03:11:44.282Z,0
2017-04-25T03:12:56.820Z,0
2017-04-25T03:14:09.398Z,0
2017-04-25T03:15:21.027Z,0
2017-04-25T03:16:33.569Z,0
2017-04-25T03:17:46.095Z,4
2017-04-25T03:18:58.668Z,4
2017-04-25T03:20:11.210Z,0
2017-04-25T03:21:23.431Z,4
2017-04-25T03:22:35.674Z,8
2017-04-25T03:23:48.502Z,8
2017-04-25T03:25:01.040Z,8
2017-04-25T03:26:12.666Z,8
2017-04-25T03:27:25.172Z,8
2017-04-25T03:28:37.703Z,12
2017-04-25T03:29:49.932Z,16
2017-04-25T03:31:02.449Z,20
2017-04-25T03:32:14.345Z,24
2017-04-25T03:33:26.869Z,28
2017-04-25T03:34:39.415Z,32
2017-04-25T03:35:51.962Z,40
2017-04-25T03:37:03.878Z,48
2017-04-25T03:38:16.121Z,48
2017-04-25T03:39:28.622Z,52
2017-04-25T03:40:41.141Z,60
2017-04-25T03:41:53.654Z,68
2017-04-25T03:43:06.208Z,72
2017-04-25T03:44:18.707Z,88
2017-04-25T03:45:31.254Z,104
2017-04-25T03:46:43.789Z,120
2017-04-25T03:47:56.342Z,132
2017-04-25T03:49:08.888Z,148
2017-04-25T03:50:21.404Z,156
2017-04-25T03:51:33.954Z,168
2017-04-25T03:52:46.450Z,188
2017-04-25T03:53:58.973Z,212
2017-04-25T03:55:11.509Z,248
2017-04-25T03:56:24.060Z,264
2017-04-25T03:57:36.605Z,268
2017-04-25T03:58:49.111Z,312
2017-04-25T04:00:01.656Z,384
2017-04-25T04:01:13.900Z,440
2017-04-25T04:02:26.667Z,488
2017-04-25T04:03:39.189Z,544
2017-04-25T04:04:51.738Z,600
2017-04-25T04:06:03.972Z,676
2017-04-25T04:07:16.822Z,744
2017-04-25T04:08:29.353Z,788
2017-04-25T04:09:41.896Z,816
2017-04-25T04:10:54.114Z,872
2017-04-25T04:12:06.635Z,996
2017-04-25T04:13:19.173Z,1100
2017-04-25T04:14:31.394Z,1128
2017-04-25T04:15:43.949Z,1092
2017-04-25T04:16:56.468Z,1044
2017-04-25T04:18:08.989Z,1016
2017-04-25T04:19:21.514Z,1004
2017-04-25T04:20:34.033Z,1092
2017-04-25T04:21:46.255Z,1256
2017-04-25T04:22:58.791Z,1408
2017-04-25T04:24:11.597Z,1480
2017-04-25T04:25:24.143Z,1524
2017-04-25T04:26:36.681Z,1580
2017-04-25T04:27:49.210Z,1680
2017-04-25T04:29:01.455Z,1804
2017-04-25T04:30:13.994Z,1916
2017-04-25T04:31:26.524Z,2000
2017-04-25T04:32:39.062Z,2040
2017-04-25T04:33:51.616Z,2040
2017-04-25T04:35:04.136Z,2012
2017-04-25T04:36:16.656Z,2008
2017-04-25T04:37:29.195Z,2052
2017-04-25T04:38:41.736Z,2084
2017-04-25T04:39:54.536Z,2104
2017-04-25T04:41:06.779Z,2144
2017-04-25T04:42:19.325Z,2108
2017-04-25T04:43:31.850Z,2016
2017-04-25T04:44:44.081Z,1904
2017-04-25T04:45:56.323Z,1732
2017-04-25T04:47:08.558Z,1712
2017-04-25T04:48:21.093Z,1752
2017-04-25T04:49:33.667Z,1804
2017-04-25T04:50:45.904Z,1764
2017-04-25T04:51:58.429Z,1828
2017-04-25T04:53:10.971Z,1856
2017-04-25T04:54:23.167Z,1892
2017-04-25T04:55:35.717Z,2120
2017-04-25T04:56:48.275Z,2516
2017-04-25T04:58:00.506Z,2600
2017-04-25T04:59:12.450Z,2556
2017-04-25T05:00:24.992Z,2532
2017-04-25T05:01:37.494Z,2680
2017-04-25T05:02:50.016Z,3076
2017-04-25T05:04:02.539Z,3568
2017-04-25T05:05:15.101Z,4112
2017-04-25T05:06:27.622Z,4476
2017-04-25T05:07:40.164Z,4280
2017-04-25T05:08:52.714Z,4068
2017-04-25T05:10:05.284Z,4096
2017-04-25T05:11:17.509Z,4108
2017-04-25T05:12:30.030Z,3812
2017-04-25T05:13:42.553Z,4000
2017-04-25T05:14:54.800Z,4288
2017-04-25T05:16:07.361Z,4676
2017-04-25T05:17:19.292Z,4824
2017-04-25T05:18:31.803Z,4752
2017-04-25T05:19:44.334Z,4940
2017-04-25T05:20:56.884Z,5124
2017-04-25T05:22:09.443Z,5400
2017-04-25T05:23:21.344Z,5376
2017-04-25T05:24:33.843Z,5484
2017-04-25T05:25:46.389Z,5904
2017-04-25T05:26:58.932Z,6196
2017-04-25T05:28:11.430Z,6592
2017-04-25T05:29:23.952Z,7160
2017-04-25T05:30:36.169Z,7444
2017-04-25T05:31:48.693Z,7332
2017-04-25T05:33:01.260Z,7060
2017-04-25T05:34:13.802Z,6788
2017-04-25T05:35:26.374Z,7228
2017-04-25T05:36:38.898Z,8236
2017-04-25T05:37:51.437Z,9840
2017-04-25T05:39:03.969Z,10380
2017-04-25T05:40:16.464Z,9712
2017-04-25T05:41:29.028Z,9972
2017-04-25T05:42:41.585Z,11332
2017-04-25T05:43:53.844Z,12796
2017-04-25T05:45:06.078Z,12792
2017-04-25T05:46:18.315Z,11108
2017-04-25T05:47:30.843Z,10828
2017-04-25T05:48:43.384Z,10752
2017-04-25T05:49:55.928Z,10848
2017-04-25T05:51:08.141Z,11468
2017-04-25T05:52:20.671Z,11168
2017-04-25T05:53:33.192Z,11288
2017-04-25T05:54:45.708Z,11616
2017-04-25T05:55:58.251Z,12948
2017-04-25T05:57:10.508Z,13664
2017-04-25T05:58:23.060Z,14024
2017-04-25T05:59:35.603Z,13952
2017-04-25T06:00:47.887Z,13808
2017-04-25T06:02:00.138Z,13824
2017-04-25T06:03:12.351Z,14096
2017-04-25T06:04:24.881Z,13980
2017-04-25T06:05:37.430Z,12792
2017-04-25T06:06:50.265Z,12036
2017-04-25T06:08:02.473Z,12172
2017-04-25T06:09:14.991Z,12600
2017-04-25T06:10:27.539Z,13300
2017-04-25T06:11:40.059Z,14116
2017-04-25T06:12:52.604Z,14880
2017-04-25T06:14:05.128Z,15564
2017-04-25T06:15:17.372Z,15800
2017-04-25T06:16:29.588Z,15892
2017-04-25T06:17:42.417Z,15852
2017-04-25T06:18:54.958Z,15452
2017-04-25T06:20:07.498Z,14832
2017-04-25T06:21:20.040Z,14328
2017-04-25T06:22:32.543Z,14004
2017-04-25T06:23:45.069Z,13796
2017-04-25T06:24:57.612Z,13796
2017-04-25T06:26:10.135Z,13964
2017-04-25T06:27:22.053Z,14252
2017-04-25T06:28:34.601Z,14716
2017-04-25T06:29:47.145Z,15104
2017-04-25T06:30:59.693Z,15144
2017-04-25T06:32:11.931Z,14996
2017-04-25T06:33:24.457Z,14952
2017-04-25T06:34:36.969Z,14736
2017-04-25T06:35:49.541Z,14652
2017-04-25T06:37:02.044Z,14920
2017-04-25T06:38:14.294Z,15308
2017-04-25T06:39:27.135Z,15720
2017-04-25T06:40:39.431Z,16556
2017-04-25T06:41:51.347Z,18272
2017-04-25T06:43:03.849Z,19616
2017-04-25T06:44:16.067Z,21760
2017-04-25T06:45:28.285Z,22112
2017-04-25T06:46:40.811Z,22144
2017-04-25T06:47:53.310Z,22208
2017-04-25T06:49:05.853Z,19872
2017-04-25T06:50:18.049Z,11768
2017-04-25T06:51:30.566Z,10868
2017-04-25T06:52:43.094Z,10256
2017-04-25T06:53:55.632Z,7060
2017-04-25T06:55:07.860Z,6808
2017-04-25T06:56:20.121Z,5256
2017-04-25T06:57:32.680Z,5300
2017-04-25T06:58:44.900Z,7976
2017-04-25T06:59:57.443Z,9696
2017-04-25T07:01:09.919Z,5308
2017-04-25T07:02:22.434Z,5896
2017-04-25T07:03:34.054Z,7328
2017-04-25T07:04:46.571Z,7608
2017-04-25T07:05:59.099Z,7400
2017-04-25T07:07:11.642Z,9000
2017-04-25T07:08:24.183Z,8568
2017-04-25T07:09:36.726Z,10480
2017-04-25T07:10:48.647Z,10896
2017-04-25T07:12:01.176Z,11632
2017-04-25T07:13:13.699Z,9732
2017-04-25T07:14:25.943Z,9856
2017-04-25T07:15:37.867Z,7740
2017-04-25T07:16:50.104Z,6084
2017-04-25T07:18:02.630Z,6256
2017-04-25T07:19:14.859Z,6048
2017-04-25T07:20:27.076Z,5956
2017-04-25T07:21:39.315Z,6320
2017-04-25T07:22:51.538Z,6016
2017-04-25T07:24:04.052Z,6712
2017-04-25T07:25:16.562Z,5976
2017-04-25T07:26:29.077Z,5388
2017-04-25T07:27:41.572Z,6140
2017-04-25T07:28:53.794Z,7040
2017-04-25T07:30:06.316Z,6640
2017-04-25T07:31:18.541Z,7000
2017-04-25T07:32:31.126Z,8084
2017-04-25T07:33:43.655Z,8320
2017-04-25T07:34:55.905Z,8016
2017-04-25T07:36:08.452Z,8116
2017-04-25T07:37:20.965Z,8576
2017-04-25T07:38:33.489Z,7592
2017-04-25T07:39:46.034Z,6540
2017-04-25T07:40:58.583Z,6204
2017-04-25T07:42:11.127Z,7028
2017-04-25T07:43:23.370Z,8304
2017-04-25T07:44:35.893Z,9956
2017-04-25T07:45:48.139Z,10868
2017-04-25T07:47:00.358Z,8624
2017-04-25T07:48:12.556Z,6340
2017-04-25T07:49:25.122Z,6504
2017-04-25T07:50:37.648Z,6712
2017-04-25T07:51:50.187Z,6920
2017-04-25T07:53:02.437Z,6324
2017-04-25T07:54:14.354Z,5772
2017-04-25T07:55:26.899Z,5188
2017-04-25T07:56:39.117Z,5108
2017-04-25T07:57:51.666Z,5492
2017-04-25T07:59:04.194Z,6392
2017-04-25T08:00:16.739Z,7492
2017-04-25T08:01:29.301Z,8796
2017-04-25T08:02:41.533Z,10352
2017-04-25T08:03:54.075Z,11528
2017-04-25T08:05:06.288Z,11984
2017-04-25T08:06:18.821Z,12436
2017-04-25T08:07:31.062Z,12596
2017-04-25T08:08:43.289Z,12952
2017-04-25T08:09:55.823Z,13396
2017-04-25T08:11:07.759Z,13920
2017-04-25T08:12:19.978Z,14436
2017-04-25T08:13:32.517Z,14396
2017-04-25T08:14:45.085Z,15036
2017-04-25T08:15:57.613Z,14956
2017-04-25T08:17:10.148Z,15440
2017-04-25T08:18:22.702Z,16816
2017-04-25T08:19:34.964Z,18272
2017-04-25T08:20:47.526Z,16432
2017-04-25T08:22:00.068Z,12812
2017-04-25T08:23:12.309Z,12260
2017-04-25T08:24:24.530Z,11572
2017-04-25T08:25:37.026Z,11796
2017-04-25T08:26:49.550Z,12068
2017-04-25T08:28:02.068Z,12272
2017-04-25T08:29:14.318Z,11816
2017-04-25T08:30:26.866Z,11024
2017-04-25T08:31:39.410Z,8984
2017-04-25T08:32:51.956Z,8824
2017-04-25T08:34:04.173Z,7840
2017-04-25T08:35:16.700Z,5976
2017-04-25T08:36:29.242Z,7516
2017-04-25T08:37:41.769Z,7544
2017-04-25T08:38:54.603Z,7124
2017-04-25T08:40:07.132Z,6200
2017-04-25T08:41:19.049Z,6980
2017-04-25T08:42:31.590Z,7772
2017-04-25T08:43:44.140Z,8788
2017-04-25T08:44:56.681Z,9716
2017-04-25T08:46:08.588Z,10088
2017-04-25T08:47:21.129Z,10208
2017-04-25T08:48:33.678Z,10580
2017-04-25T08:49:45.923Z,11260
2017-04-25T08:50:58.165Z,11064
2017-04-25T08:52:10.688Z,12580
2017-04-25T08:53:22.887Z,9944
2017-04-25T08:54:34.849Z,7800
2017-04-25T08:55:47.391Z,9204
2017-04-25T08:56:59.941Z,14176
2017-04-25T08:58:12.170Z,10640
2017-04-25T08:59:24.696Z,14676
2017-04-25T09:00:37.233Z,11636
2017-04-25T09:01:49.796Z,12568
2017-04-25T09:03:02.343Z,10256
2017-04-25T09:04:14.600Z,14424
2017-04-25T09:05:27.116Z,16372
2017-04-25T09:06:39.615Z,17952
2017-04-25T09:07:52.150Z,21664
2017-04-25T09:09:04.708Z,16048
2017-04-25T09:10:17.270Z,13012
2017-04-25T09:11:29.792Z,16312
2017-04-25T09:12:42.299Z,14332
2017-04-25T09:13:54.542Z,10272
2017-04-25T09:15:07.101Z,12280
2017-04-25T09:16:19.621Z,10928
2017-04-25T09:17:32.142Z,11608
2017-04-25T09:18:44.691Z,12304
2017-04-25T09:19:56.623Z,12368
2017-04-25T09:21:09.157Z,14652
2017-04-25T09:22:21.688Z,12456
2017-04-25T09:23:34.222Z,11164
2017-04-25T09:24:46.471Z,15608
2017-04-25T09:25:59.000Z,19200
2017-04-25T09:27:11.564Z,19360
2017-04-25T09:28:24.095Z,20000
2017-04-25T09:29:36.651Z,21856
2017-04-25T09:30:49.223Z,19904
2017-04-25T09:32:01.761Z,18944
2017-04-25T09:33:14.297Z,15868
2017-04-25T09:34:26.522Z,12284
2017-04-25T09:35:39.094Z,8900
2017-04-25T09:36:51.327Z,8088
2017-04-25T09:38:03.530Z,8136
2017-04-25T09:39:16.047Z,7420
2017-04-25T09:40:27.989Z,7968
2017-04-25T09:41:40.522Z,11940
2017-04-25T09:42:52.772Z,13832
2017-04-25T09:44:05.319Z,19808
2017-04-25T09:45:16.960Z,23840
2017-04-25T09:46:29.487Z,24416
2017-04-25T09:47:42.024Z,25728
2017-04-25T09:48:54.540Z,37216
2017-04-25T09:50:06.765Z,36864
2017-04-25T09:51:19.302Z,34016
2017-04-25T09:52:31.532Z,26336
2017-04-25T09:53:44.095Z,22912
2017-04-25T09:54:56.327Z,20736
2017-04-25T09:56:08.891Z,17056
2017-04-25T09:57:21.125Z,21024
2017-04-25T09:58:33.340Z,29248
2017-04-25T09:59:45.865Z,30208
2017-04-25T10:00:58.404Z,26080
2017-04-25T10:02:10.903Z,24320
2017-04-25T10:03:23.137Z,29696
2017-04-25T10:04:35.373Z,34656
2017-04-25T10:05:47.932Z,39328
2017-04-25T10:07:00.479Z,38528
2017-04-25T10:08:12.429Z,33760
2017-04-25T10:09:24.968Z,38016
2017-04-25T10:10:37.522Z,44064
2017-04-25T10:11:50.049Z,42464
2017-04-25T10:13:02.606Z,34336
2017-04-25T10:14:15.139Z,32096
2017-04-25T10:15:27.675Z,31648
2017-04-25T10:16:40.203Z,34240
2017-04-25T10:17:52.755Z,33184
2017-04-25T10:19:05.293Z,25888
2017-04-25T10:20:17.513Z,26848
2017-04-25T10:21:30.033Z,29600
2017-04-25T10:22:42.554Z,31424
2017-04-25T10:23:55.103Z,30336
2017-04-25T10:25:07.342Z,30848
2017-04-25T10:26:19.584Z,29120
2017-04-25T10:27:31.491Z,30080
2017-04-25T10:28:44.059Z,28544
2017-04-25T10:29:56.580Z,23264
2017-04-25T10:31:09.102Z,21952
2017-04-25T10:32:21.350Z,22304
2017-04-25T10:33:33.601Z,23520
2017-04-25T10:34:46.181Z,22720
2017-04-25T10:35:58.089Z,18752
2017-04-25T10:37:10.326Z,15120
2017-04-25T10:38:22.830Z,16196
2017-04-25T10:39:35.047Z,17568
2017-04-25T10:40:47.268Z,23840
2017-04-25T10:41:59.473Z,26880
2017-04-25T10:43:12.017Z,25696
2017-04-25T10:44:24.256Z,36224
2017-04-25T10:45:36.806Z,33824
2017-04-25T10:46:49.348Z,36544
2017-04-25T10:48:01.869Z,50144
2017-04-25T10:49:14.090Z,49856
2017-04-25T10:50:25.711Z,33728
2017-04-25T10:51:37.942Z,32640
2017-04-25T10:52:50.502Z,36768
2017-04-25T10:54:02.719Z,35648
2017-04-25T10:55:14.647Z,42944
2017-04-25T10:56:27.209Z,38272
2017-04-25T10:57:39.737Z,26144
2017-04-25T10:58:52.283Z,22784
2017-04-25T11:00:04.503Z,21760
2017-04-25T11:01:16.752Z,20096
2017-04-25T11:02:29.000Z,23648
2017-04-25T11:03:41.516Z,29280
2017-04-25T11:04:53.741Z,26624
2017-04-25T11:06:06.307Z,22656
2017-04-25T11:07:18.829Z,22048
2017-04-25T11:08:30.449Z,31104
2017-04-25T11:09:42.666Z,37376
2017-04-25T11:10:54.594Z,31200
2017-04-25T11:12:07.114Z,24032
2017-04-25T11:13:19.075Z,32576
2017-04-25T11:14:31.029Z,41696
2017-04-25T11:15:43.553Z,41152
2017-04-25T11:16:56.075Z,33440
2017-04-25T11:18:08.322Z,31808
2017-04-25T11:19:20.244Z,33056
2017-04-25T11:20:32.784Z,32512
2017-04-25T11:21:45.305Z,29280
2017-04-25T11:22:57.825Z,25056
2017-04-25T11:24:10.067Z,22112
2017-04-25T11:25:22.294Z,24832
2017-04-25T11:26:34.856Z,25952
2017-04-25T11:27:47.383Z,25600
2017-04-25T11:28:59.333Z,26560
2017-04-25T11:30:11.877Z,28448
2017-04-25T11:31:24.378Z,28864
2017-04-25T11:32:36.935Z,26464
2017-04-25T11:33:49.485Z,19104
2017-04-25T11:35:02.027Z,14456
2017-04-25T11:36:14.560Z,11756
2017-04-25T11:37:26.780Z,10612
2017-04-25T11:38:39.326Z,8744
2017-04-25T11:39:51.885Z,8056
2017-04-25T11:41:03.833Z,7692
2017-04-25T11:42:16.063Z,7992
2017-04-25T11:43:28.285Z,7244
2017-04-25T11:44:40.528Z,6480
2017-04-25T11:45:53.047Z,7504
2017-04-25T11:47:05.273Z,11000
2017-04-25T11:48:17.515Z,14128
2017-04-25T11:49:29.742Z,15092
2017-04-25T11:50:41.989Z,12520
2017-04-25T11:51:54.224Z,12672
2017-04-25T11:53:06.473Z,13804
2017-04-25T11:54:18.712Z,15120
2017-04-25T11:55:31.219Z,15060
2017-04-25T11:56:43.757Z,22656
2017-04-25T11:57:56.282Z,20736
2017-04-25T11:59:08.503Z,11488
2017-04-25T12:00:21.027Z,9372
2017-04-25T12:01:33.548Z,12380
2017-04-25T12:02:46.071Z,9084
2017-04-25T12:03:58.290Z,17600
2017-04-25T12:05:10.836Z,28704
2017-04-25T12:06:23.382Z,33696
2017-04-25T12:07:35.903Z,32608
2017-04-25T12:08:48.492Z,29728
2017-04-25T12:10:01.033Z,22336
2017-04-25T12:11:13.283Z,18528
2017-04-25T12:12:25.833Z,19488
2017-04-25T12:13:38.092Z,21568
2017-04-25T12:14:50.625Z,20416
2017-04-25T12:16:03.171Z,17536
2017-04-25T12:17:15.384Z,14284
2017-04-25T12:18:27.913Z,11016
2017-04-25T12:19:40.161Z,11292
2017-04-25T12:20:52.079Z,12028
2017-04-25T12:22:04.593Z,15220
2017-04-25T12:23:16.821Z,29760
2017-04-25T12:24:29.367Z,39616
2017-04-25T12:25:41.892Z,38144
2017-04-25T12:26:54.127Z,46080
2017-04-25T12:28:06.654Z,64768
2017-04-25T12:29:18.868Z,72544
2017-04-25T12:30:31.139Z,26176
2017-04-25T12:31:43.666Z,33216
2017-04-25T12:32:55.915Z,33184
2017-04-25T12:34:08.477Z,29984
2017-04-25T12:35:21.035Z,31904
2017-04-25T12:36:33.576Z,32864
2017-04-25T12:37:46.097Z,25312
2017-04-25T12:38:58.597Z,27456
2017-04-25T12:40:11.160Z,62784
2017-04-25T12:41:23.410Z,65568
2017-04-25T12:42:35.661Z,65056
2017-04-25T12:43:48.203Z,64480
2017-04-25T12:45:00.726Z,63264
2017-04-25T12:46:12.973Z,59520
2017-04-25T12:47:25.543Z,59872
2017-04-25T12:48:37.782Z,61920
2017-04-25T12:49:50.308Z,55040
2017-04-25T12:51:02.828Z,63616
2017-04-25T12:52:15.079Z,66976
2017-04-25T12:53:27.353Z,67456
2017-04-25T12:54:39.891Z,37568
2017-04-25T12:55:52.432Z,70432
2017-04-25T12:57:04.961Z,67328
2017-04-25T12:58:17.205Z,67680
2017-04-25T12:59:29.772Z,64736
2017-04-25T13:00:42.320Z,12580
2017-04-25T13:01:54.533Z,12904
2017-04-25T13:03:07.091Z,13724
2017-04-25T13:04:19.660Z,51744
2017-04-25T13:05:31.906Z,73120
2017-04-25T13:06:44.474Z,73216
2017-04-25T13:07:56.401Z,49472
2017-04-25T13:09:08.690Z,14968
2017-04-25T13:10:21.243Z,74656
2017-04-25T13:11:33.159Z,69568
2017-04-25T13:12:45.108Z,67776
2017-04-25T13:13:57.078Z,65568
2017-04-25T13:15:09.625Z,21952
2017-04-25T13:16:22.166Z,26496
2017-04-25T13:17:34.716Z,20768
2017-04-25T13:18:47.234Z,23648
2017-04-25T13:20:00.135Z,33344
2017-04-25T13:21:12.674Z,26304
2017-04-25T13:22:24.921Z,22080
2017-04-25T13:23:37.446Z,16172
2017-04-25T13:24:49.708Z,15380
2017-04-25T13:26:02.214Z,16760
2017-04-25T13:27:14.455Z,21504
2017-04-25T13:28:26.710Z,22112
2017-04-25T13:29:38.992Z,24544
2017-04-25T13:30:51.548Z,30112
2017-04-25T13:32:03.188Z,27232
2017-04-25T13:33:15.114Z,22400
2017-04-25T13:34:27.355Z,17728
2017-04-25T13:35:39.905Z,17728
2017-04-25T13:36:52.450Z,19584
2017-04-25T13:38:04.993Z,19520
2017-04-25T13:39:17.240Z,16204
2017-04-25T13:40:29.802Z,12332
2017-04-25T13:41:41.426Z,10996
2017-04-25T13:42:53.652Z,11044
2017-04-25T13:44:06.176Z,44096
2017-04-25T13:45:18.440Z,17856
2017-04-25T13:46:30.969Z,19296
2017-04-25T13:47:43.512Z,20064
2017-04-25T13:48:56.059Z,18464
2017-04-25T13:50:08.595Z,16968
2017-04-25T13:51:20.231Z,20416
2017-04-25T13:52:31.576Z,19360
2017-04-25T13:53:43.858Z,17952
2017-04-25T13:54:56.417Z,13716
2017-04-25T13:56:08.932Z,11772
2017-04-25T13:57:21.195Z,12584
2017-04-25T13:58:33.432Z,17020
2017-04-25T13:59:45.970Z,17728
2017-04-25T14:00:58.494Z,18848
2017-04-25T14:02:10.368Z,15628
2017-04-25T14:03:21.109Z,12368
2017-04-25T14:04:33.079Z,10848
2017-04-25T14:05:45.301Z,11156
2017-04-25T14:06:57.812Z,10700
2017-04-25T14:08:10.323Z,11572
2017-04-25T14:09:22.540Z,11768
2017-04-25T14:10:35.080Z,11840
2017-04-25T14:11:47.307Z,11876
2017-04-25T14:12:58.324Z,11804
2017-04-25T14:14:09.344Z,12836
2017-04-25T14:15:20.970Z,14192
2017-04-25T14:16:33.515Z,14756
2017-04-25T14:17:46.080Z,14316
2017-04-25T14:18:58.298Z,15744
2017-04-25T14:20:10.825Z,12948
2017-04-25T14:21:22.449Z,14284
2017-04-25T14:22:33.823Z,15364
2017-04-25T14:23:44.590Z,14500
2017-04-25T14:24:55.608Z,13524
2017-04-25T14:26:06.354Z,14028
2017-04-25T14:27:17.995Z,15040
2017-04-25T14:28:30.522Z,15916
2017-04-25T14:29:42.746Z,16080
2017-04-25T14:30:55.307Z,15892
2017-04-25T14:32:06.937Z,16832
2017-04-25T14:33:17.983Z,17280
2017-04-25T14:34:29.627Z,18112
2017-04-25T14:35:41.297Z,18944
2017-04-25T14:36:52.893Z,19328
2017-04-25T14:38:04.208Z,19872
2017-04-25T14:39:16.460Z,19136
2017-04-25T14:40:28.410Z,16724
2017-04-25T14:41:40.632Z,15896
2017-04-25T14:42:53.150Z,16036
2017-04-25T14:44:05.719Z,17632
2017-04-25T14:45:17.640Z,18720
2017-04-25T14:46:29.553Z,18560
2017-04-25T14:47:42.085Z,17568
2017-04-25T14:48:54.603Z,16168
2017-04-25T14:50:07.100Z,14032
2017-04-25T14:51:19.323Z,12536
2017-04-25T14:52:31.868Z,11536
2017-04-25T14:53:45.594Z,11108
2017-04-25T14:54:58.136Z,10620
2017-04-25T14:56:10.696Z,10764
2017-04-25T14:57:22.602Z,11412
2017-04-25T14:58:35.499Z,12980
2017-04-25T14:59:48.037Z,14688
2017-04-25T15:01:00.258Z,13768
2017-04-25T15:02:12.513Z,13856
2017-04-25T15:03:24.757Z,12728
2017-04-25T15:04:36.967Z,11680
2017-04-25T15:05:49.499Z,10404
2017-04-25T15:07:02.047Z,9276
2017-04-25T15:08:14.305Z,11120
2017-04-25T15:09:26.854Z,12724
2017-04-25T15:10:39.405Z,11804
2017-04-25T15:11:51.929Z,10688
2017-04-25T15:13:04.514Z,8896
2017-04-25T15:14:17.413Z,7584
2017-04-25T15:15:29.638Z,7828
2017-04-25T15:16:42.165Z,10020
2017-04-25T15:17:54.705Z,11040
2017-04-25T15:19:07.233Z,10560
2017-04-25T15:20:19.493Z,9144
2017-04-25T15:21:32.020Z,9024
2017-04-25T15:22:44.563Z,8944
2017-04-25T15:23:57.102Z,9364
2017-04-25T15:25:09.634Z,10312
2017-04-25T15:26:21.576Z,10516
2017-04-25T15:27:34.106Z,9716
2017-04-25T15:28:46.644Z,9572
2017-04-25T15:29:59.142Z,11100
2017-04-25T15:31:11.640Z,11496
2017-04-25T15:32:23.884Z,10236
2017-04-25T15:33:36.402Z,10028
2017-04-25T15:34:48.948Z,11860
2017-04-25T15:36:01.490Z,13808
2017-04-25T15:37:13.715Z,13312
2017-04-25T15:38:25.936Z,11720
2017-04-25T15:39:38.501Z,10032
2017-04-25T15:40:51.003Z,9428
2017-04-25T15:42:03.253Z,9648
2017-04-25T15:43:15.490Z,10176
2017-04-25T15:44:27.417Z,10824
2017-04-25T15:45:39.935Z,11332
2017-04-25T15:46:52.487Z,11208
2017-04-25T15:48:05.002Z,10196
2017-04-25T15:49:17.524Z,9376
2017-04-25T15:50:29.798Z,8764
2017-04-25T15:51:42.333Z,8392
2017-04-25T15:52:54.861Z,8120
2017-04-25T15:54:07.104Z,8108
2017-04-25T15:55:19.333Z,8000
2017-04-25T15:56:31.879Z,7888
2017-04-25T15:57:44.416Z,7868
2017-04-25T15:58:56.912Z,7940
2017-04-25T16:00:09.135Z,8428
2017-04-25T16:01:21.353Z,9360
2017-04-25T16:02:33.879Z,10144
2017-04-25T16:03:46.104Z,10476
2017-04-25T16:04:58.601Z,10708
2017-04-25T16:06:10.545Z,10336
2017-04-25T16:07:22.780Z,9944
2017-04-25T16:08:35.300Z,9960
2017-04-25T16:09:47.836Z,10308